PWSweather.com
Personal Weather Stations
Station Observations

OlomoucCZ

Lat: 49.5936202181, Lon: 17.2276005149

Elevation: 752

Station Type: Davis Vantage Pro 2 Activ

http://infopocasi-olomouc.cz

Latest ConditionsUpdated 11:00:01 PM GMT+01:01 Saturday, Feb 23, 2019
Currently Today's Max Today's Min Today's Average
Temperature 27.3°F-2.6°C 33.0°F0.6°C 21.9°F-5.6°C 27.9°F-2.3°C
Dew Point 20.1°F-6.6°C 20.1°F-6.6°C 13.8°F-10.1°C 16.7°F-8.5°C
Winds 2.3 mph W3.7 kmh W 10.4 mph -16.7 kmh - - 5.5 mph 8.9 kmh
Wind Gusts 3.5 mph5.6 kmh 13.8 mph22.2 kmh - -
Humidity 74% 75% 48% 63%
Pressure 30.76 in1041.7 mb 30.84 in1044.4 mb 30.76 in1041.7 mb -
Hour Temp Dew Point Humidity Winds Wind Gusts Pressure Precip Precip Rate Daily Precip Total
11:00 PM 27.3°F-2.6°C 20.1°F-6.6°C 74% 2.3 mph W3.7 kmh W 3.5 mph5.6 kmh 30.76 in1041.7 mb - 0.00 in0.0 mm 0.00 in0.0 mm
10:30 PM 27.9°F-2.3°C 20.0°F-6.7°C 72% 2.3 mph W3.7 kmh W 3.5 mph5.6 kmh 30.76 in1041.7 mb - 0.00 in0.0 mm 0.00 in0.0 mm
10:00 PM 28.7°F-1.8°C 19.1°F-7.2°C 67% 1.2 mph NW1.9 kmh NW 2.3 mph3.7 kmh 30.76 in1041.7 mb - 0.00 in0.0 mm 0.00 in0.0 mm
09:30 PM 29.8°F-1.2°C 19.1°F-7.2°C 64% Calm Calm 1.2 mph1.9 kmh 30.76 in1041.7 mb - 0.00 in0.0 mm 0.00 in0.0 mm
09:00 PM 29.9°F-1.2°C 18.8°F-7.3°C 63% 1.2 mph N1.9 kmh N 2.3 mph3.7 kmh 30.77 in1042.0 mb - 0.00 in0.0 mm 0.00 in0.0 mm
08:30 PM 29.3°F-1.5°C 19.0°F-7.2°C 65% 1.2 mph NW1.9 kmh NW 3.5 mph5.6 kmh 30.76 in1041.7 mb - 0.00 in0.0 mm 0.00 in0.0 mm
08:00 PM 29.3°F-1.5°C 18.6°F-7.4°C 64% 3.5 mph NW5.6 kmh NW 4.6 mph7.4 kmh 30.77 in1042.0 mb - 0.00 in0.0 mm 0.00 in0.0 mm
07:30 PM 30.1°F-1.1°C 18.3°F-7.6°C 61% 2.3 mph NW3.7 kmh NW 3.5 mph5.6 kmh 30.77 in1042.0 mb - 0.00 in0.0 mm 0.00 in0.0 mm
07:00 PM 30.3°F-0.9°C 18.4°F-7.6°C 61% 3.5 mph NNW5.6 kmh NNW 5.8 mph9.3 kmh 30.77 in1042.0 mb - 0.00 in0.0 mm 0.00 in0.0 mm
06:30 PM 30.6°F-0.8°C 18.7°F-7.4°C 61% 4.6 mph N7.4 kmh N 6.9 mph11.1 kmh 30.77 in1042.0 mb - 0.00 in0.0 mm 0.00 in0.0 mm
06:00 PM 30.8°F-0.7°C 18.1°F-7.7°C 59% 4.6 mph N7.4 kmh N 5.8 mph9.3 kmh 30.76 in1041.7 mb - 0.00 in0.0 mm 0.00 in0.0 mm
05:30 PM 31.2°F-0.4°C 18.5°F-7.5°C 59% 9.2 mph N14.8 kmh N 11.5 mph18.5 kmh 30.77 in1042.0 mb - 0.00 in0.0 mm 0.00 in0.0 mm
05:00 PM 31.7°F-0.2°C 17.8°F-7.9°C 56% 10.4 mph N16.7 kmh N 13.8 mph22.2 kmh 30.77 in1042.0 mb - 0.00 in0.0 mm 0.00 in0.0 mm
04:30 PM 32.4°F0.2°C 17.6°F-8.0°C 54% 6.9 mph N11.1 kmh N 11.5 mph18.5 kmh 30.76 in1041.7 mb - 0.00 in0.0 mm 0.00 in0.0 mm
04:00 PM 32.8°F0.4°C 17.5°F-8.1°C 53% 4.6 mph N7.4 kmh N 10.4 mph16.7 kmh 30.77 in1042.0 mb - 0.00 in0.0 mm 0.00 in0.0 mm
03:30 PM 33.0°F0.6°C 17.7°F-7.9°C 53% 5.8 mph NNW9.3 kmh NNW 10.4 mph16.7 kmh 30.77 in1042.0 mb - 0.00 in0.0 mm 0.00 in0.0 mm
03:00 PM 32.7°F0.4°C 17.9°F-7.8°C 54% 6.9 mph NW11.1 kmh NW 10.4 mph16.7 kmh 30.77 in1042.0 mb - 0.00 in0.0 mm 0.00 in0.0 mm
02:30 PM 32.3°F0.2°C 16.2°F-8.8°C 51% 5.8 mph N9.3 kmh N 8.1 mph13.0 kmh 30.77 in1042.0 mb - 0.00 in0.0 mm 0.00 in0.0 mm
02:00 PM 32.3°F0.2°C 17.1°F-8.3°C 53% 8.1 mph NW13.0 kmh NW 10.4 mph16.7 kmh 30.77 in1042.0 mb - 0.00 in0.0 mm 0.00 in0.0 mm
01:30 PM 32.3°F0.2°C 16.2°F-8.8°C 51% 6.9 mph N11.1 kmh N 9.2 mph14.8 kmh 30.79 in1042.7 mb - 0.00 in0.0 mm 0.00 in0.0 mm
01:00 PM 31.5°F-0.3°C 15.0°F-9.4°C 50% 4.6 mph N7.4 kmh N 11.5 mph18.5 kmh 30.80 in1043.0 mb - 0.00 in0.0 mm 0.00 in0.0 mm
12:30 PM 31.4°F-0.3°C 13.9°F-10.1°C 48% 3.5 mph WNW5.6 kmh WNW 6.9 mph11.1 kmh 30.82 in1043.7 mb - 0.00 in0.0 mm 0.00 in0.0 mm
12:00 PM 31.2°F-0.4°C 13.8°F-10.1°C 48% 4.6 mph N7.4 kmh N 4.6 mph7.4 kmh 30.82 in1043.7 mb - 0.00 in0.0 mm 0.00 in0.0 mm
11:30 AM 31.2°F-0.4°C 15.2°F-9.3°C 51% 9.2 mph NW14.8 kmh NW 12.7 mph20.4 kmh 30.84 in1044.4 mb - 0.00 in0.0 mm 0.00 in0.0 mm
11:00 AM 30.8°F-0.7°C 15.2°F-9.3°C 52% 9.2 mph NW14.8 kmh NW 12.7 mph20.4 kmh 30.83 in1044.0 mb - 0.00 in0.0 mm 0.00 in0.0 mm
10:30 AM 30.6°F-0.8°C 17.2°F-8.2°C 57% 6.9 mph NW11.1 kmh NW 9.2 mph14.8 kmh 30.84 in1044.4 mb - 0.00 in0.0 mm 0.00 in0.0 mm
10:00 AM 29.6°F-1.3°C 17.4°F-8.1°C 60% 9.2 mph NW14.8 kmh NW 12.7 mph20.4 kmh 30.84 in1044.4 mb - 0.00 in0.0 mm 0.00 in0.0 mm
09:30 AM 27.5°F-2.5°C 16.5°F-8.6°C 63% 8.1 mph NW13.0 kmh NW 11.5 mph18.5 kmh 30.84 in1044.4 mb - 0.00 in0.0 mm 0.00 in0.0 mm
09:00 AM 26.3°F-3.2°C 16.5°F-8.6°C 66% 4.6 mph NW7.4 kmh NW 10.4 mph16.7 kmh 30.83 in1044.0 mb - 0.00 in0.0 mm 0.00 in0.0 mm
08:30 AM 25.5°F-3.6°C 16.7°F-8.5°C 69% 2.3 mph N3.7 kmh N 3.5 mph5.6 kmh 30.83 in1044.0 mb - 0.00 in0.0 mm 0.00 in0.0 mm
08:00 AM 23.9°F-4.5°C 16.1°F-8.8°C 72% 2.3 mph NNW3.7 kmh NNW 3.5 mph5.6 kmh 30.82 in1043.7 mb - 0.00 in0.0 mm 0.00 in0.0 mm
07:30 AM 21.9°F-5.6°C 15.2°F-9.3°C 75% 3.5 mph NNW5.6 kmh NNW 3.5 mph5.6 kmh 30.82 in1043.7 mb - 0.00 in0.0 mm 0.00 in0.0 mm
07:00 AM 22.1°F-5.5°C 14.8°F-9.6°C 73% 4.6 mph NNW7.4 kmh NNW 8.1 mph13.0 kmh 30.81 in1043.3 mb - 0.00 in0.0 mm 0.00 in0.0 mm
06:30 AM 22.5°F-5.3°C 15.1°F-9.4°C 73% 6.9 mph NW11.1 kmh NW 8.1 mph13.0 kmh 30.81 in1043.3 mb - 0.00 in0.0 mm 0.00 in0.0 mm
06:00 AM 22.7°F-5.2°C 14.4°F-9.8°C 70% 5.8 mph NNW9.3 kmh NNW 8.1 mph13.0 kmh 30.80 in1043.0 mb - 0.00 in0.0 mm 0.00 in0.0 mm
05:30 AM 22.7°F-5.2°C 15.0°F-9.4°C 72% 5.8 mph NW9.3 kmh NW 9.2 mph14.8 kmh 30.80 in1043.0 mb - 0.00 in0.0 mm 0.00 in0.0 mm
05:00 AM 22.8°F-5.1°C 14.8°F-9.6°C 71% 4.6 mph NW7.4 kmh NW 8.1 mph13.0 kmh 30.80 in1043.0 mb - 0.00 in0.0 mm 0.00 in0.0 mm
04:30 AM 23.1°F-4.9°C 15.1°F-9.4°C 71% 5.8 mph NW9.3 kmh NW 8.1 mph13.0 kmh 30.80 in1043.0 mb - 0.00 in0.0 mm 0.00 in0.0 mm
04:00 AM 23.5°F-4.7°C 15.1°F-9.4°C 70% 8.1 mph NW13.0 kmh NW 11.5 mph18.5 kmh 30.81 in1043.3 mb - 0.00 in0.0 mm 0.00 in0.0 mm
03:30 AM 23.6°F-4.7°C 15.6°F-9.1°C 71% 3.5 mph NW5.6 kmh NW 8.1 mph13.0 kmh 30.80 in1043.0 mb - 0.00 in0.0 mm 0.00 in0.0 mm
03:00 AM 23.9°F-4.5°C 15.5°F-9.2°C 70% 4.6 mph NW7.4 kmh NW 4.6 mph7.4 kmh 30.80 in1043.0 mb - 0.00 in0.0 mm 0.00 in0.0 mm
02:30 AM 24.2°F-4.3°C 15.8°F-9.0°C 70% 9.2 mph NW14.8 kmh NW 11.5 mph18.5 kmh 30.80 in1043.0 mb - 0.00 in0.0 mm 0.00 in0.0 mm
02:00 AM 24.6°F-4.1°C 15.5°F-9.2°C 68% 10.4 mph NW16.7 kmh NW 13.8 mph22.2 kmh 30.79 in1042.7 mb - 0.00 in0.0 mm 0.00 in0.0 mm
01:30 AM 24.7°F-4.1°C 15.6°F-9.1°C 68% 8.1 mph NNW13.0 kmh NNW 12.7 mph20.4 kmh 30.78 in1042.3 mb - 0.00 in0.0 mm 0.00 in0.0 mm
01:00 AM 25.0°F-3.9°C 15.6°F-9.1°C 67% 5.8 mph N9.3 kmh N 8.1 mph13.0 kmh 30.78 in1042.3 mb - 0.00 in0.0 mm 0.00 in0.0 mm
12:30 AM 25.5°F-3.6°C 16.7°F-8.5°C 69% 10.4 mph NNW16.7 kmh NNW 11.5 mph18.5 kmh 30.77 in1042.0 mb - 0.00 in0.0 mm 0.00 in0.0 mm
12:00 AM 25.8°F-3.4°C 17.0°F-8.3°C 69% 6.9 mph NW11.1 kmh NW 9.2 mph14.8 kmh 30.77 in1042.0 mb - 0.00 in0.0 mm 0.00 in0.0 mm